createdAt,value
2023-07-29T00:00:48.002Z,99.90
2023-07-29T00:03:15.106Z,99.90
2023-07-29T00:05:42.210Z,99.90
2023-07-29T00:08:09.172Z,99.90
2023-07-29T00:10:39.142Z,99.90
2023-07-29T00:13:07.150Z,99.90
2023-07-29T00:15:34.264Z,99.90
2023-07-29T00:18:01.204Z,99.90
2023-07-29T00:20:28.277Z,99.90
2023-07-29T00:22:55.878Z,99.90
2023-07-29T00:25:23.470Z,99.90
2023-07-29T00:27:50.643Z,99.90
2023-07-29T00:30:17.776Z,99.90
2023-07-29T00:32:44.862Z,99.90
2023-07-29T00:35:13.760Z,99.90
2023-07-29T00:37:41.146Z,99.90
2023-07-29T00:40:17.429Z,99.90
2023-07-29T00:42:44.432Z,99.90
2023-07-29T00:45:11.507Z,99.90
2023-07-29T00:47:40.389Z,99.90
2023-07-29T00:50:08.517Z,99.90
2023-07-29T00:52:35.573Z,99.90
2023-07-29T00:55:03.130Z,99.90
2023-07-29T00:57:31.709Z,99.90
2023-07-29T00:59:58.692Z,99.90
2023-07-29T01:02:30.558Z,99.90
2023-07-29T01:05:10.036Z,99.90
2023-07-29T01:08:07.974Z,99.90
2023-07-29T01:11:00.706Z,99.90
2023-07-29T01:13:56.088Z,99.90
2023-07-29T01:16:35.630Z,99.90
2023-07-29T01:19:10.474Z,99.90
2023-07-29T01:21:40.612Z,99.90
2023-07-29T01:24:08.012Z,99.90
2023-07-29T01:26:35.266Z,99.90
2023-07-29T01:29:07.775Z,99.90
2023-07-29T01:31:37.368Z,99.90
2023-07-29T01:34:22.677Z,99.90
2023-07-29T01:36:52.917Z,99.90
2023-07-29T01:39:26.452Z,99.90
2023-07-29T01:41:56.623Z,99.90
2023-07-29T01:44:24.207Z,99.90
2023-07-29T01:46:51.660Z,99.90
2023-07-29T01:49:18.885Z,99.90
2023-07-29T01:51:46.071Z,99.90
2023-07-29T01:54:20.110Z,99.90
2023-07-29T01:56:49.313Z,99.90
2023-07-29T01:59:18.347Z,99.90
2023-07-29T02:01:50.361Z,99.90
2023-07-29T02:04:18.786Z,99.90
2023-07-29T02:06:46.298Z,99.90
2023-07-29T02:09:13.730Z,99.90
2023-07-29T02:11:40.762Z,99.90
2023-07-29T02:14:08.704Z,99.90
2023-07-29T02:16:36.457Z,99.90
2023-07-29T02:19:04.399Z,99.90
2023-07-29T02:21:31.287Z,99.90
2023-07-29T02:23:58.331Z,99.90
2023-07-29T02:26:25.436Z,99.90
2023-07-29T02:28:57.524Z,99.90
2023-07-29T02:31:26.398Z,99.90
2023-07-29T02:33:57.796Z,99.90
2023-07-29T02:36:30.015Z,99.90
2023-07-29T02:38:57.779Z,99.90
2023-07-29T02:41:26.565Z,99.90
2023-07-29T02:43:53.551Z,99.90
2023-07-29T02:46:22.145Z,99.90
2023-07-29T02:48:52.008Z,99.90
2023-07-29T02:51:20.136Z,99.90
2023-07-29T02:53:47.056Z,99.90
2023-07-29T02:56:14.050Z,99.90
2023-07-29T02:58:41.469Z,99.90
2023-07-29T03:01:09.082Z,99.90
2023-07-29T03:03:36.687Z,99.90
2023-07-29T03:06:08.242Z,99.90
2023-07-29T03:08:36.237Z,99.90
2023-07-29T03:11:11.528Z,99.90
2023-07-29T03:13:38.970Z,99.90
2023-07-29T03:16:15.078Z,99.90
2023-07-29T03:18:46.786Z,99.90
2023-07-29T03:21:13.804Z,99.90
2023-07-29T03:23:40.732Z,99.90
2023-07-29T03:26:14.959Z,99.90
2023-07-29T03:28:45.878Z,99.90
2023-07-29T03:31:13.951Z,99.90
2023-07-29T03:33:40.901Z,99.90
2023-07-29T03:36:07.816Z,99.90
2023-07-29T03:38:36.830Z,99.90
2023-07-29T03:41:04.417Z,99.90
2023-07-29T03:43:37.100Z,99.90
2023-07-29T03:46:08.502Z,99.90
2023-07-29T03:48:42.130Z,99.90
2023-07-29T03:51:09.519Z,99.90
2023-07-29T03:53:38.575Z,99.90
2023-07-29T03:56:07.943Z,99.90
2023-07-29T03:58:37.386Z,99.90
2023-07-29T04:01:05.647Z,99.90
2023-07-29T04:03:36.593Z,99.90
2023-07-29T04:06:05.285Z,99.90
2023-07-29T04:08:32.621Z,99.90
2023-07-29T04:11:00.621Z,99.90
2023-07-29T04:13:29.012Z,99.90
2023-07-29T04:15:58.107Z,99.90
2023-07-29T04:18:25.036Z,99.90
2023-07-29T04:20:53.025Z,99.90
2023-07-29T04:23:21.094Z,99.90
2023-07-29T04:25:48.669Z,99.90
2023-07-29T04:28:18.719Z,99.90
2023-07-29T04:30:49.322Z,99.90
2023-07-29T04:33:18.458Z,99.90
2023-07-29T04:35:46.686Z,99.90
2023-07-29T04:38:15.467Z,99.90
2023-07-29T04:40:44.399Z,99.90
2023-07-29T04:43:11.310Z,99.90
2023-07-29T04:45:45.832Z,99.90
2023-07-29T04:48:13.843Z,99.90
2023-07-29T04:51:00.940Z,99.90
2023-07-29T04:53:27.779Z,99.90
2023-07-29T04:55:56.145Z,99.90
2023-07-29T04:58:23.502Z,99.90
2023-07-29T05:00:51.758Z,99.90
2023-07-29T05:03:22.084Z,99.90
2023-07-29T05:05:49.809Z,99.90
2023-07-29T05:08:19.355Z,99.90
2023-07-29T05:10:51.158Z,99.90
2023-07-29T05:13:20.400Z,99.90
2023-07-29T05:15:59.879Z,99.90
2023-07-29T05:18:28.031Z,99.90
2023-07-29T05:20:56.134Z,99.90
2023-07-29T05:23:24.091Z,99.90
2023-07-29T05:25:52.558Z,99.90
2023-07-29T05:28:20.039Z,99.90
2023-07-29T05:30:52.176Z,99.90
2023-07-29T05:36:13.247Z,99.90
2023-07-29T05:38:48.128Z,99.90
2023-07-29T05:41:31.948Z,99.90
2023-07-29T05:44:06.767Z,99.90
2023-07-29T05:46:38.317Z,99.90
2023-07-29T05:49:09.863Z,99.90
2023-07-29T05:51:42.002Z,99.90
2023-07-29T05:54:11.359Z,99.90
2023-07-29T05:56:58.000Z,99.90
2023-07-29T05:59:25.966Z,99.90
2023-07-29T06:02:04.525Z,99.90
2023-07-29T06:04:35.930Z,99.90
2023-07-29T06:07:07.792Z,99.90
2023-07-29T06:09:40.388Z,99.90
2023-07-29T06:12:12.789Z,99.90
2023-07-29T06:14:51.032Z,99.90
2023-07-29T06:17:18.859Z,99.90
2023-07-29T06:19:49.650Z,99.90
2023-07-29T06:22:19.781Z,99.90
2023-07-29T06:24:46.935Z,99.90
2023-07-29T06:27:14.272Z,99.90
2023-07-29T06:29:44.742Z,99.90
2023-07-29T06:32:12.248Z,99.90
2023-07-29T06:34:43.156Z,99.90
2023-07-29T06:37:11.364Z,99.90
2023-07-29T06:39:38.695Z,99.90
2023-07-29T06:42:07.166Z,99.90
2023-07-29T06:44:37.647Z,99.90
2023-07-29T06:47:04.884Z,99.90
2023-07-29T06:49:31.822Z,99.90
2023-07-29T06:51:58.929Z,99.90
2023-07-29T06:54:29.643Z,99.90
2023-07-29T06:56:56.644Z,99.90
2023-07-29T06:59:28.849Z,99.90
2023-07-29T07:01:57.592Z,99.90
2023-07-29T07:07:11.752Z,99.90
2023-07-29T07:09:39.306Z,99.90
2023-07-29T07:12:13.153Z,99.90
2023-07-29T07:14:49.654Z,99.90
2023-07-29T07:17:28.056Z,99.90
2023-07-29T07:19:57.568Z,99.90
2023-07-29T07:22:25.688Z,99.90
2023-07-29T07:24:54.339Z,99.90
2023-07-29T07:27:23.280Z,99.90
2023-07-29T07:29:53.927Z,99.90
2023-07-29T07:32:26.386Z,99.90
2023-07-29T07:34:54.512Z,99.90
2023-07-29T07:37:23.797Z,99.90
2023-07-29T07:39:51.162Z,99.90
2023-07-29T07:42:18.095Z,99.90
2023-07-29T07:44:46.213Z,99.90
2023-07-29T07:47:14.330Z,99.90
2023-07-29T07:49:44.203Z,99.90
2023-07-29T07:52:15.609Z,99.90
2023-07-29T07:54:52.471Z,99.90
2023-07-29T07:57:21.069Z,99.90
2023-07-29T07:59:49.015Z,99.90
2023-07-29T08:02:16.803Z,94.50
2023-07-29T08:04:44.289Z,99.90
2023-07-29T08:07:11.942Z,99.80
2023-07-29T08:09:43.836Z,99.90
2023-07-29T08:12:20.240Z,99.90
2023-07-29T08:14:51.212Z,96.30
2023-07-29T08:17:18.659Z,99.90
2023-07-29T08:19:53.809Z,99.90
2023-07-29T08:22:21.632Z,97.40
2023-07-29T08:27:36.021Z,61.10
2023-07-29T08:30:21.234Z,59.70
2023-07-29T08:32:52.433Z,59.80
2023-07-29T08:35:20.945Z,59.40
2023-07-29T08:37:47.817Z,59.30
2023-07-29T08:40:14.783Z,59.10
2023-07-29T08:42:46.196Z,59.00
2023-07-29T08:45:19.696Z,59.00
2023-07-29T08:47:51.536Z,58.90
2023-07-29T08:50:19.429Z,59.00
2023-07-29T08:52:49.970Z,59.20
2023-07-29T08:55:24.312Z,59.10
2023-07-29T08:57:52.827Z,59.00
2023-07-29T09:00:21.594Z,58.90
2023-07-29T09:02:49.016Z,58.90
2023-07-29T09:05:16.078Z,58.90
2023-07-29T09:07:45.424Z,58.90
2023-07-29T09:10:14.885Z,58.90
2023-07-29T09:12:42.103Z,58.90
2023-07-29T09:15:09.750Z,59.10
2023-07-29T09:17:36.842Z,59.10
2023-07-29T09:20:04.122Z,59.00
2023-07-29T09:22:42.170Z,59.00
2023-07-29T09:25:10.445Z,58.80
2023-07-29T09:27:40.890Z,58.70
2023-07-29T09:30:17.614Z,58.60
2023-07-29T09:32:44.698Z,58.60
2023-07-29T09:35:15.613Z,58.80
2023-07-29T09:37:43.019Z,58.70
2023-07-29T09:40:16.416Z,58.70
2023-07-29T09:43:09.576Z,58.60
2023-07-29T09:45:38.293Z,58.40
2023-07-29T09:48:11.483Z,58.50
2023-07-29T09:50:43.628Z,58.50
2023-07-29T09:53:13.601Z,58.50
2023-07-29T09:55:43.649Z,58.40
2023-07-29T09:58:11.346Z,58.30
2023-07-29T10:00:40.173Z,58.30
2023-07-29T10:03:08.617Z,58.30
2023-07-29T10:05:36.974Z,58.30
2023-07-29T10:08:05.457Z,58.30
2023-07-29T10:10:32.420Z,58.20
2023-07-29T10:12:59.763Z,58.20
2023-07-29T10:15:28.922Z,58.20
2023-07-29T10:17:56.738Z,58.20
2023-07-29T10:20:24.009Z,58.20
2023-07-29T10:22:56.721Z,58.20
2023-07-29T10:25:25.713Z,58.30
2023-07-29T10:28:06.134Z,58.40
2023-07-29T10:30:34.230Z,58.30
2023-07-29T10:33:04.983Z,58.40
2023-07-29T10:35:34.979Z,58.30
2023-07-29T10:38:04.228Z,58.30
2023-07-29T10:40:57.435Z,58.30
2023-07-29T10:43:35.406Z,58.20
2023-07-29T10:46:22.308Z,58.20
2023-07-29T10:48:52.517Z,58.30
2023-07-29T10:51:26.925Z,58.20
2023-07-29T10:53:59.059Z,58.20
2023-07-29T10:56:35.724Z,58.10
2023-07-29T10:59:13.613Z,58.10
2023-07-29T11:01:51.853Z,58.10
2023-07-29T11:04:22.202Z,58.00
2023-07-29T11:07:28.233Z,58.00
2023-07-29T11:09:58.201Z,57.90
2023-07-29T11:12:46.895Z,57.90
2023-07-29T11:15:24.407Z,57.80
2023-07-29T11:18:02.229Z,57.80
2023-07-29T11:20:34.431Z,57.80
2023-07-29T11:23:03.531Z,57.80
2023-07-29T11:25:32.154Z,57.80
2023-07-29T11:28:03.977Z,57.80
2023-07-29T11:30:35.003Z,57.80
2023-07-29T11:33:02.515Z,57.80
2023-07-29T11:35:29.438Z,57.80
2023-07-29T11:37:59.574Z,57.80
2023-07-29T11:40:26.551Z,57.70
2023-07-29T11:42:54.492Z,57.70
2023-07-29T11:45:30.035Z,57.80
2023-07-29T11:48:03.447Z,57.90
2023-07-29T11:50:30.547Z,57.90
2023-07-29T11:52:57.572Z,57.80
2023-07-29T11:55:25.323Z,57.80
2023-07-29T11:57:53.518Z,57.70
2023-07-29T12:00:22.613Z,57.80
2023-07-29T12:02:50.731Z,57.80
2023-07-29T12:05:19.875Z,57.70
2023-07-29T12:07:46.941Z,57.70
2023-07-29T12:10:14.010Z,57.70
2023-07-29T12:12:48.730Z,57.70
2023-07-29T12:15:25.232Z,49.70
2023-07-29T12:17:59.064Z,43.10
2023-07-29T12:20:27.544Z,42.90
2023-07-29T12:22:59.225Z,43.00
2023-07-29T12:25:27.657Z,43.00
2023-07-29T12:27:54.976Z,43.10
2023-07-29T12:30:23.358Z,57.60
2023-07-29T12:32:50.575Z,57.60
2023-07-29T12:35:17.863Z,49.70
2023-07-29T12:37:46.273Z,49.70
2023-07-29T12:40:26.660Z,42.90
2023-07-29T12:42:54.462Z,43.00
2023-07-29T12:45:24.197Z,43.00
2023-07-29T12:47:51.996Z,43.10
2023-07-29T12:50:19.109Z,43.10
2023-07-29T12:52:46.092Z,43.40
2023-07-29T12:55:15.819Z,43.40
2023-07-29T12:57:44.585Z,43.40
2023-07-29T13:00:12.534Z,43.30
2023-07-29T13:02:39.884Z,43.40
2023-07-29T13:05:07.670Z,43.50
2023-07-29T13:07:34.837Z,43.30
2023-07-29T13:10:01.915Z,43.20
2023-07-29T13:12:28.972Z,43.40
2023-07-29T13:14:55.996Z,43.30
2023-07-29T13:17:24.416Z,43.40
2023-07-29T13:19:51.554Z,43.60
2023-07-29T13:22:19.225Z,43.70
2023-07-29T13:24:46.222Z,43.70
2023-07-29T13:27:13.248Z,43.70
2023-07-29T13:29:41.056Z,43.60
2023-07-29T13:32:08.865Z,43.50
2023-07-29T13:34:36.056Z,43.50
2023-07-29T13:37:03.235Z,43.50
2023-07-29T13:39:30.272Z,43.60
2023-07-29T13:41:57.255Z,43.60
2023-07-29T13:44:24.236Z,43.60
2023-07-29T13:46:51.087Z,43.60
2023-07-29T13:49:18.310Z,43.60
2023-07-29T13:51:45.420Z,43.60
2023-07-29T13:54:12.379Z,43.60
2023-07-29T13:56:39.559Z,43.60
2023-07-29T13:59:06.836Z,43.60
2023-07-29T14:01:33.722Z,43.80
2023-07-29T14:04:00.714Z,43.80
2023-07-29T14:06:39.321Z,43.90
2023-07-29T14:09:11.685Z,43.90
2023-07-29T14:11:38.890Z,43.80
2023-07-29T14:14:06.207Z,43.90
2023-07-29T14:16:33.151Z,44.00
2023-07-29T14:19:00.186Z,44.00
2023-07-29T14:21:27.213Z,43.80
2023-07-29T14:23:54.202Z,43.80
2023-07-29T14:26:21.864Z,43.70
2023-07-29T14:28:50.192Z,43.60
2023-07-29T14:31:25.252Z,43.60
2023-07-29T14:33:52.200Z,43.70
2023-07-29T14:36:19.289Z,43.80
2023-07-29T14:38:49.240Z,43.70
2023-07-29T14:41:16.145Z,43.80
2023-07-29T14:43:43.280Z,43.70
2023-07-29T14:46:10.597Z,43.60
2023-07-29T14:48:38.600Z,43.70
2023-07-29T14:51:05.900Z,43.60
2023-07-29T14:53:38.453Z,43.80
2023-07-29T14:56:21.818Z,43.70
2023-07-29T14:58:51.943Z,43.70
2023-07-29T15:01:40.141Z,43.80
2023-07-29T15:04:20.852Z,43.90
2023-07-29T15:06:51.544Z,43.80
2023-07-29T15:09:34.279Z,43.80
2023-07-29T15:12:02.731Z,43.70
2023-07-29T15:14:31.042Z,43.70
2023-07-29T15:17:09.149Z,43.60
2023-07-29T15:19:46.182Z,43.50
2023-07-29T15:22:15.649Z,43.50
2023-07-29T15:24:45.444Z,43.40
2023-07-29T15:27:14.227Z,43.40
2023-07-29T15:29:42.968Z,43.40
2023-07-29T15:32:10.018Z,43.40
2023-07-29T15:34:37.060Z,43.30
2023-07-29T15:37:04.657Z,43.30
2023-07-29T15:39:31.606Z,43.30
2023-07-29T15:41:59.290Z,43.20
2023-07-29T15:44:26.217Z,43.20
2023-07-29T15:46:54.601Z,43.20
2023-07-29T15:49:21.620Z,43.20
2023-07-29T15:51:48.525Z,43.20
2023-07-29T15:54:15.840Z,43.20
2023-07-29T15:56:44.386Z,43.20
2023-07-29T15:59:11.677Z,43.20
2023-07-29T16:01:38.712Z,43.20
2023-07-29T16:04:08.205Z,43.20
2023-07-29T16:06:36.790Z,43.20
2023-07-29T16:09:07.484Z,43.10
2023-07-29T16:11:34.893Z,43.10
2023-07-29T16:14:01.840Z,43.00
2023-07-29T16:16:29.943Z,43.00
2023-07-29T16:18:57.007Z,43.00
2023-07-29T16:21:23.873Z,43.00
2023-07-29T16:23:53.762Z,43.00
2023-07-29T16:26:21.508Z,43.00
2023-07-29T16:28:48.985Z,43.00
2023-07-29T16:31:16.190Z,43.10
2023-07-29T16:33:43.160Z,43.20
2023-07-29T16:36:10.078Z,43.30
2023-07-29T16:38:37.326Z,43.50
2023-07-29T16:41:15.853Z,43.70
2023-07-29T16:43:51.090Z,43.90
2023-07-29T16:46:18.120Z,44.00
2023-07-29T16:48:45.164Z,44.20
2023-07-29T16:51:12.156Z,44.10
2023-07-29T16:53:40.217Z,44.10
2023-07-29T16:56:07.136Z,44.10
2023-07-29T16:58:34.104Z,44.00
2023-07-29T17:01:01.029Z,43.90
2023-07-29T17:03:28.348Z,43.70
2023-07-29T17:05:58.002Z,43.70
2023-07-29T17:08:25.171Z,43.60
2023-07-29T17:10:52.145Z,43.40
2023-07-29T17:13:19.616Z,43.40
2023-07-29T17:15:46.711Z,43.30
2023-07-29T17:18:13.739Z,43.20
2023-07-29T17:20:40.732Z,43.10
2023-07-29T17:23:07.810Z,43.00
2023-07-29T17:25:34.850Z,43.00
2023-07-29T17:28:03.090Z,43.00
2023-07-29T17:30:30.115Z,42.90
2023-07-29T17:32:58.549Z,42.90
2023-07-29T17:35:26.680Z,42.90
2023-07-29T17:37:53.661Z,42.80
2023-07-29T17:40:20.688Z,42.80
2023-07-29T17:42:55.477Z,42.70
2023-07-29T17:45:22.470Z,42.60
2023-07-29T17:47:51.066Z,42.60
2023-07-29T17:50:28.595Z,42.50
2023-07-29T17:52:56.586Z,42.50
2023-07-29T17:55:23.578Z,42.40
2023-07-29T17:57:50.565Z,42.40
2023-07-29T18:00:17.514Z,42.30
2023-07-29T18:02:44.640Z,42.30
2023-07-29T18:05:11.643Z,42.30
2023-07-29T18:07:38.628Z,42.20
2023-07-29T18:10:06.748Z,42.20
2023-07-29T18:12:33.726Z,42.10
2023-07-29T18:15:00.700Z,42.10
2023-07-29T18:17:27.804Z,42.10
2023-07-29T18:19:55.794Z,42.10
2023-07-29T18:22:24.542Z,42.00
2023-07-29T18:24:51.580Z,48.70
2023-07-29T18:27:18.558Z,48.70
2023-07-29T18:29:45.616Z,48.70
2023-07-29T18:32:12.657Z,48.70
2023-07-29T18:34:39.544Z,58.30
2023-07-29T18:37:06.803Z,58.30
2023-07-29T18:39:33.854Z,58.40
2023-07-29T18:42:00.790Z,58.40
2023-07-29T18:44:27.688Z,58.40
2023-07-29T18:46:54.975Z,58.40
2023-07-29T18:49:22.115Z,58.40
2023-07-29T18:51:49.055Z,58.40
2023-07-29T18:54:15.998Z,58.40
2023-07-29T18:56:43.028Z,58.50
2023-07-29T18:59:11.035Z,58.50
2023-07-29T19:01:38.081Z,58.50
2023-07-29T19:04:05.564Z,58.50
2023-07-29T19:06:32.673Z,58.50
2023-07-29T19:09:00.379Z,58.50
2023-07-29T19:11:27.367Z,58.50
2023-07-29T19:13:55.370Z,58.50
2023-07-29T19:16:22.375Z,58.50
2023-07-29T19:18:49.690Z,58.50
2023-07-29T19:21:19.863Z,58.50
2023-07-29T19:23:47.241Z,58.50
2023-07-29T19:26:17.088Z,58.50
2023-07-29T19:28:44.016Z,58.50
2023-07-29T19:31:15.128Z,58.50
2023-07-29T19:33:44.057Z,58.50
2023-07-29T19:36:12.075Z,58.50
2023-07-29T19:38:39.915Z,58.50
2023-07-29T19:41:07.544Z,58.50
2023-07-29T19:43:34.572Z,58.50
2023-07-29T19:48:34.267Z,58.60
2023-07-29T19:51:01.228Z,58.60
2023-07-29T19:53:28.308Z,58.60
2023-07-29T19:55:55.273Z,58.60
2023-07-29T19:58:22.624Z,58.70
2023-07-29T20:00:53.215Z,58.70
2023-07-29T20:03:20.359Z,58.70
2023-07-29T20:05:48.017Z,58.70
2023-07-29T20:08:15.421Z,58.70
2023-07-29T20:10:42.457Z,58.70
2023-07-29T20:13:09.328Z,58.80
2023-07-29T20:15:36.328Z,58.80
2023-07-29T20:18:03.319Z,58.80
2023-07-29T20:20:30.626Z,58.80
2023-07-29T20:22:57.781Z,58.80
2023-07-29T20:25:24.827Z,58.90
2023-07-29T20:27:51.720Z,58.80
2023-07-29T20:30:18.778Z,58.80
2023-07-29T20:32:45.942Z,58.90
2023-07-29T20:35:12.928Z,58.90
2023-07-29T20:37:39.950Z,58.80
2023-07-29T20:40:07.647Z,58.80
2023-07-29T20:42:34.663Z,58.80
2023-07-29T20:45:06.205Z,58.80
2023-07-29T20:47:34.032Z,58.90
2023-07-29T20:50:01.499Z,58.90
2023-07-29T20:52:28.418Z,58.90
2023-07-29T20:54:55.460Z,58.90
2023-07-29T20:57:22.406Z,58.90
2023-07-29T20:59:49.422Z,58.90
2023-07-29T21:02:16.411Z,58.80
2023-07-29T21:04:43.488Z,58.80
2023-07-29T21:07:10.393Z,58.80
2023-07-29T21:09:37.559Z,58.80
2023-07-29T21:12:06.171Z,59.00
2023-07-29T21:14:33.245Z,59.40
2023-07-29T21:17:00.307Z,59.80
2023-07-29T21:19:27.444Z,99.90
2023-07-29T21:21:54.438Z,99.90
2023-07-29T21:24:21.415Z,99.90
2023-07-29T21:26:48.374Z,99.90
2023-07-29T21:29:15.294Z,99.90
2023-07-29T21:31:42.503Z,99.90
2023-07-29T21:34:11.338Z,99.90
2023-07-29T21:36:38.228Z,99.90
2023-07-29T21:39:05.248Z,99.90
2023-07-29T21:41:33.521Z,99.90
2023-07-29T21:44:00.522Z,99.90
2023-07-29T21:46:27.642Z,99.90
2023-07-29T21:48:54.654Z,99.90
2023-07-29T21:51:21.607Z,99.90
2023-07-29T21:53:48.479Z,99.90
2023-07-29T21:56:15.433Z,99.90
2023-07-29T21:58:42.456Z,99.90
2023-07-29T22:01:09.425Z,99.90
2023-07-29T22:03:36.652Z,99.90
2023-07-29T22:06:05.470Z,99.90
2023-07-29T22:08:33.247Z,99.90
2023-07-29T22:11:08.896Z,99.90
2023-07-29T22:13:36.016Z,99.90
2023-07-29T22:16:03.772Z,99.90
2023-07-29T22:18:31.253Z,99.90
2023-07-29T22:20:59.766Z,99.90
2023-07-29T22:23:27.207Z,99.90
2023-07-29T22:25:58.672Z,99.90
2023-07-29T22:28:25.838Z,99.90
